Time;durP1;ratioP1;P1;durP2;ratioP2;P2;SDS_P1;SDS_P2;PMS_P1;PMS_P2;Temp;Humidity;BMP_temperature;BMP_pressure;BME280_temperature;BME280_humidity;BME280_pressure;Samples;Min_cycle;Max_cycle;Signal;HPM_P1;HPM_P2
2022/02/28 00:01:25;;;;;;;11.55;5.30;;;;;;;0.87;67.87;100831.16;5033941;28;20052;-52
2022/02/28 00:03:51;;;;;;;11.10;6.18;;;;;;;0.68;68.35;100820.63;5030148;28;20049;-52
2022/02/28 00:06:17;;;;;;;10.20;5.43;;;;;;;0.64;68.26;100828.78;5034239;28;20124;-56
2022/02/28 00:08:42;;;;;;;11.77;6.00;;;;;;;0.68;68.84;100820.63;5034956;28;20518;-54
2022/02/28 00:11:08;;;;;;;12.82;6.35;;;;;;;0.84;68.07;100823.50;5036978;28;20483;-54
2022/02/28 00:13:33;;;;;;;13.70;6.28;;;;;;;0.83;68.78;100824.50;5035215;28;20502;-54
2022/02/28 00:15:59;;;;;;;9.27;5.47;;;;;;;0.19;70.41;100821.41;5035341;28;20095;-54
2022/02/28 00:18:24;;;;;;;18.77;8.20;;;;;;;-0.52;74.27;100815.38;5033380;28;20033;-54
2022/02/28 00:20:49;;;;;;;23.02;9.82;;;;;;;-1.01;76.46;100830.06;5034588;28;20053;-52
2022/02/28 00:23:15;;;;;;;26.80;10.52;;;;;;;-1.41;79.62;100828.09;5029228;28;20030;-54
2022/02/28 00:25:41;;;;;;;25.38;11.13;;;;;;;-1.65;80.21;100818.59;5032675;28;20053;-54
2022/02/28 00:28:06;;;;;;;28.65;11.57;;;;;;;-1.99;80.66;100821.31;5018750;28;20033;-54
2022/02/28 00:30:34;;;;;;;19.20;9.27;;;;;;;-1.80;81.38;100815.44;5030169;28;20162;-54
2022/02/28 00:32:59;;;;;;;15.93;8.13;;;;;;;-1.57;86.00;100816.19;5028203;28;20387;-55
2022/02/28 00:35:25;;;;;;;11.38;6.03;;;;;;;-1.29;87.40;100813.94;5043860;28;20045;-55
2022/02/28 00:37:50;;;;;;;10.05;6.15;;;;;;;-0.57;84.23;100809.66;5029008;28;20044;-51
2022/02/28 00:40:16;;;;;;;11.93;6.28;;;;;;;-0.59;78.56;100809.78;5029110;28;20064;-54
2022/02/28 00:42:41;;;;;;;11.68;6.07;;;;;;;-0.55;76.17;100807.72;5029274;28;20549;-54
2022/02/28 00:45:07;;;;;;;12.38;5.35;;;;;;;-0.49;77.78;100799.28;5036055;28;20099;-54
2022/02/28 00:47:32;;;;;;;9.52;5.53;;;;;;;-0.54;75.15;100814.66;5035354;28;20361;-54
2022/02/28 00:49:58;;;;;;;9.35;5.55;;;;;;;-0.62;76.62;100810.06;5034450;28;20140;-54
2022/02/28 00:52:23;;;;;;;17.63;6.70;;;;;;;-0.75;75.38;100810.28;5035215;28;20537;-53
2022/02/28 00:54:49;;;;;;;12.43;5.82;;;;;;;-0.88;77.21;100804.34;5033675;28;20037;-54
2022/02/28 00:57:14;;;;;;;17.23;7.60;;;;;;;-1.12;77.80;100813.38;5028543;28;20033;-54
2022/02/28 00:59:39;;;;;;;19.00;7.40;;;;;;;-1.16;77.35;100811.94;5028924;28;20435;-53
2022/02/28 01:02:05;;;;;;;27.73;13.90;;;;;;;-1.93;80.33;100804.22;5032539;28;20033;-54
2022/02/28 01:04:30;;;;;;;23.02;11.00;;;;;;;-2.19;81.94;100804.50;5032801;28;20060;-54
2022/02/28 01:06:56;;;;;;;21.40;10.35;;;;;;;-2.49;83.18;100805.13;5033717;28;20048;-53
2022/02/28 01:09:21;;;;;;;20.88;10.82;;;;;;;-2.64;84.57;100804.53;5038505;28;20052;-52
2022/02/28 01:11:47;;;;;;;16.23;8.07;;;;;;;-2.56;84.52;100803.94;5035010;28;20045;-51
2022/02/28 01:14:12;;;;;;;18.35;8.05;;;;;;;-2.61;85.17;100804.28;5028733;28;20030;-53
2022/02/28 01:16:38;;;;;;;15.60;7.25;;;;;;;-2.49;84.69;100797.25;5029692;28;20049;-55
2022/02/28 01:19:03;;;;;;;14.05;6.88;;;;;;;-2.43;84.36;100803.81;5042116;28;20408;-54
2022/02/28 01:21:29;;;;;;;13.68;6.75;;;;;;;-2.42;85.46;100798.44;5032243;28;20057;-54
2022/02/28 01:23:54;;;;;;;10.38;5.07;;;;;;;-2.31;84.01;100808.09;5034778;28;20032;-52
2022/02/28 01:26:19;;;;;;;8.98;5.40;;;;;;;-1.88;81.80;100803.84;5026817;28;20083;-51
2022/02/28 01:28:45;;;;;;;11.52;5.72;;;;;;;-2.02;82.12;100805.81;5030236;28;20042;-53
2022/02/28 01:31:10;;;;;;;12.23;5.63;;;;;;;-1.79;80.55;100797.88;5033687;28;20052;-51
2022/02/28 01:33:36;;;;;;;16.50;5.90;;;;;;;-2.01;81.69;100789.06;5034609;28;20029;-52
2022/02/28 01:36:01;;;;;;;12.52;6.22;;;;;;;-2.02;81.05;100790.03;5027331;28;20386;-54
2022/02/28 01:38:27;;;;;;;16.02;6.07;;;;;;;-2.03;81.55;100787.53;5031349;28;20059;-51
2022/02/28 01:40:52;;;;;;;12.50;5.93;;;;;;;-2.13;81.99;100787.41;5040934;28;20049;-52
2022/02/28 01:43:18;;;;;;;12.85;6.22;;;;;;;-1.90;80.59;100785.56;5035374;28;20463;-52
2022/02/28 01:45:43;;;;;;;15.75;6.35;;;;;;;-1.67;82.70;100786.34;5036677;28;20067;-53
2022/02/28 01:48:09;;;;;;;11.13;5.57;;;;;;;-1.22;78.76;100782.66;5037481;28;20075;-50
2022/02/28 01:50:34;;;;;;;9.70;5.18;;;;;;;-0.80;79.35;100780.00;5033117;28;20166;-52
2022/02/28 01:53:00;;;;;;;10.55;5.80;;;;;;;-0.66;83.21;100782.31;5035913;28;20025;-51
2022/02/28 01:55:25;;;;;;;13.85;6.07;;;;;;;-1.15;77.84;100775.94;5029900;28;20459;-51
2022/02/28 01:57:51;;;;;;;11.48;5.47;;;;;;;-1.55;78.36;100785.34;5038835;28;20045;-51
2022/02/28 02:00:19;;;;;;;13.55;5.80;;;;;;;-1.78;80.53;100781.13;5030823;28;20036;-52
2022/02/28 02:02:44;;;;;;;13.45;5.90;;;;;;;-1.68;88.14;100784.66;5035467;28;20364;-51
2022/02/28 02:05:10;;;;;;;11.30;5.85;;;;;;;-1.91;82.58;100777.81;5034886;28;20033;-50
2022/02/28 02:07:35;;;;;;;13.48;6.90;;;;;;;-1.76;81.02;100779.22;5036737;28;20032;-51
2022/02/28 02:10:05;;;;;;;13.18;6.53;;;;;;;-1.31;86.63;100781.66;5039190;28;20029;-50
2022/02/28 02:12:30;;;;;;;11.57;5.95;;;;;;;-1.38;80.85;100780.47;5030454;28;20040;-51
2022/02/28 02:14:56;;;;;;;10.85;5.50;;;;;;;-1.48;79.18;100784.84;5031376;28;20038;-52
2022/02/28 02:17:21;;;;;;;14.55;6.00;;;;;;;-1.43;79.16;100782.66;5035803;28;20538;-51
2022/02/28 02:19:47;;;;;;;13.75;5.85;;;;;;;-1.55;78.89;100785.34;5037671;28;20033;-53
2022/02/28 02:22:14;;;;;;;13.70;6.55;;;;;;;-1.32;81.87;100785.25;5033636;28;20047;-50
2022/02/28 02:24:40;;;;;;;12.38;6.68;;;;;;;-1.24;83.55;100787.25;5039045;28;20430;-51
2022/02/28 02:27:05;;;;;;;11.50;6.28;;;;;;;-1.15;81.33;100784.69;5051812;28;20042;-50
2022/02/28 02:29:37;;;;;;;12.80;5.93;;;;;;;-1.27;81.73;100782.22;5038406;28;20033;-53
2022/02/28 02:32:16;;;;;;;14.25;6.38;;;;;;;-1.58;80.29;100787.38;5030746;28;20037;-51
2022/02/28 02:34:42;;;;;;;12.45;6.30;;;;;;;-1.85;81.69;100782.56;5031054;28;20033;-51
2022/02/28 02:37:07;;;;;;;17.15;6.93;;;;;;;-2.24;81.56;100783.03;5044986;28;20083;-53
2022/02/28 02:39:33;;;;;;;16.42;8.30;;;;;;;-2.62;83.10;100789.50;5039065;28;20047;-53
2022/02/28 02:41:58;;;;;;;16.08;8.60;;;;;;;-2.93;84.33;100784.94;5038072;28;20133;-54
2022/02/28 02:44:30;;;;;;;20.60;8.90;;;;;;;-2.95;86.70;100786.84;5037385;28;20017;-51
2022/02/28 02:46:56;;;;;;;14.23;7.75;;;;;;;-3.24;86.21;100776.78;5035764;28;20400;-53
2022/02/28 02:49:22;;;;;;;17.33;7.88;;;;;;;-3.45;87.64;100781.81;5036721;28;20561;-54
2022/02/28 02:51:48;;;;;;;15.05;8.32;;;;;;;-3.38;87.52;100785.66;5034891;28;20045;-53
2022/02/28 02:54:13;;;;;;;16.13;7.13;;;;;;;-3.26;87.13;100776.88;5038907;28;20028;-54
2022/02/28 02:56:38;;;;;;;17.42;7.28;;;;;;;-3.22;86.64;100774.88;5030313;28;20041;-53
2022/02/28 02:59:04;;;;;;;13.70;7.43;;;;;;;-3.19;87.12;100779.91;5031334;28;20033;-51
2022/02/28 03:01:30;;;;;;;11.90;6.72;;;;;;;-2.83;88.95;100785.91;5031306;28;20041;-52
2022/02/28 03:03:55;;;;;;;12.02;6.55;;;;;;;-2.65;89.90;100788.88;5038577;28;20123;-50
2022/02/28 03:06:20;;;;;;;17.42;6.88;;;;;;;-2.68;89.23;100778.63;5033944;28;20045;-54
2022/02/28 03:08:46;;;;;;;14.35;6.93;;;;;;;-2.87;87.15;100789.69;5038554;28;20032;-53
2022/02/28 03:11:11;;;;;;;17.02;6.82;;;;;;;-2.99;87.34;100785.41;5032572;28;20036;-51
2022/02/28 03:13:37;;;;;;;13.05;5.90;;;;;;;-3.02;87.58;100791.75;5036356;28;20033;-50
2022/02/28 03:16:02;;;;;;;14.77;6.85;;;;;;;-2.65;92.24;100786.25;5033866;28;20054;-53
2022/02/28 03:18:28;;;;;;;15.90;7.03;;;;;;;-2.90;86.91;100775.03;5035990;28;20043;-53
2022/02/28 03:20:53;;;;;;;10.77;5.72;;;;;;;-3.12;85.86;100780.25;5034156;28;20408;-50
2022/02/28 03:23:19;;;;;;;14.13;6.35;;;;;;;-3.09;86.51;100780.03;5037193;28;20392;-52
2022/02/28 03:25:44;;;;;;;15.57;7.35;;;;;;;-3.14;86.56;100774.31;5043988;28;20045;-50
2022/02/28 03:28:09;;;;;;;12.50;6.40;;;;;;;-3.17;86.18;100771.88;5032251;28;20033;-51
2022/02/28 03:30:35;;;;;;;11.05;5.85;;;;;;;-3.22;86.70;100774.03;5035455;28;20045;-53
2022/02/28 03:33:00;;;;;;;11.30;6.25;;;;;;;-3.00;86.37;100778.47;5031064;28;20496;-53
2022/02/28 03:35:26;;;;;;;14.10;6.30;;;;;;;-3.07;86.59;100762.38;5034374;28;20052;-52
2022/02/28 03:37:51;;;;;;;16.10;5.63;;;;;;;-2.61;84.34;100767.53;5033210;28;20026;-53
2022/02/28 03:40:17;;;;;;;12.68;6.85;;;;;;;-2.32;85.86;100768.81;5030130;28;20041;-52
2022/02/28 03:42:42;;;;;;;14.18;6.53;;;;;;;-1.96;82.61;100768.50;5028939;28;20037;-54
2022/02/28 03:45:08;;;;;;;13.80;7.28;;;;;;;-1.52;84.84;100771.13;5030823;28;20522;-55
2022/02/28 03:47:33;;;;;;;11.05;6.47;;;;;;;-1.69;83.87;100769.03;5033997;28;20032;-51
2022/02/28 03:49:58;;;;;;;15.63;7.63;;;;;;;-1.65;86.46;100773.91;5037690;28;20033;-51
2022/02/28 03:52:24;;;;;;;13.00;6.57;;;;;;;-1.82;81.95;100767.41;5045379;28;20037;-52
2022/02/28 03:54:49;;;;;;;10.75;6.18;;;;;;;-2.15;81.78;100770.13;5036098;28;20458;-50
2022/02/28 03:57:15;;;;;;;12.80;6.00;;;;;;;-2.42;82.71;100777.44;5034214;28;20037;-50
2022/02/28 03:59:40;;;;;;;13.98;6.53;;;;;;;-2.59;83.59;100775.31;5029856;28;20399;-51
2022/02/28 04:02:06;;;;;;;13.65;5.90;;;;;;;-2.64;85.24;100772.19;5028859;28;20573;-51
2022/02/28 04:04:31;;;;;;;17.50;7.38;;;;;;;-2.57;87.14;100773.41;5033648;28;20112;-51
2022/02/28 04:06:57;;;;;;;15.00;6.85;;;;;;;-2.65;84.61;100775.75;5033345;28;20033;-50
2022/02/28 04:09:22;;;;;;;14.85;6.30;;;;;;;-2.43;86.32;100781.00;5037222;28;20056;-54
2022/02/28 04:11:47;;;;;;;14.85;7.15;;;;;;;-2.53;83.96;100777.44;5036168;28;20060;-52
2022/02/28 04:14:13;;;;;;;15.15;7.00;;;;;;;-2.05;83.92;100777.13;5031370;28;20095;-51
2022/02/28 04:16:38;;;;;;;16.40;7.20;;;;;;;-1.66;79.53;100772.25;5030688;28;20060;-52
2022/02/28 04:19:04;;;;;;;19.27;7.75;;;;;;;-1.33;78.37;100767.78;5036174;28;20395;-52
2022/02/28 04:21:29;;;;;;;20.50;7.15;;;;;;;-1.19;77.35;100762.22;5032900;28;20048;-53
2022/02/28 04:23:54;;;;;;;15.05;7.97;;;;;;;-0.98;76.19;100763.97;5032937;28;20041;-51
2022/02/28 04:26:21;;;;;;;12.77;7.10;;;;;;;-0.81;75.11;100757.28;5032417;28;20480;-53
2022/02/28 04:28:46;;;;;;;16.13;7.63;;;;;;;-0.87;75.08;100756.84;5044678;28;20040;-55
2022/02/28 04:31:12;;;;;;;14.45;7.03;;;;;;;-0.93;74.66;100753.91;5031441;28;20369;-51
2022/02/28 04:33:38;;;;;;;16.02;7.00;;;;;;;-1.05;75.94;100757.56;5030422;28;20065;-53
2022/02/28 04:36:03;;;;;;;13.48;6.78;;;;;;;-1.26;76.39;100755.78;5034221;28;20079;-51
2022/02/28 04:38:29;;;;;;;22.50;10.32;;;;;;;-2.41;78.32;100763.34;5040889;28;20456;-53
2022/02/28 04:40:54;;;;;;;25.70;11.43;;;;;;;-3.05;81.44;100756.06;5035578;28;20508;-53
2022/02/28 04:43:20;;;;;;;21.67;9.93;;;;;;;-3.25;87.41;100756.72;5034448;28;20300;-53
2022/02/28 04:45:45;;;;;;;27.75;12.05;;;;;;;-3.55;85.59;100752.00;5029381;28;20388;-54
2022/02/28 04:48:10;;;;;;;28.70;11.48;;;;;;;-3.47;86.72;100754.88;5039849;28;20033;-50
2022/02/28 04:50:36;;;;;;;22.90;11.25;;;;;;;-3.60;86.61;100751.50;5043037;28;20347;-50
2022/02/28 04:53:01;;;;;;;27.23;11.43;;;;;;;-3.71;86.77;100755.78;5032116;28;20526;-53
2022/02/28 04:55:27;;;;;;;20.20;9.88;;;;;;;-3.80;87.57;100755.59;5028138;28;20045;-51
2022/02/28 04:57:52;;;;;;;21.75;10.85;;;;;;;-3.86;87.41;100754.28;5035248;28;20029;-52
2022/02/28 05:00:18;;;;;;;19.42;8.77;;;;;;;-3.65;91.87;100751.84;5031083;28;20078;-50
2022/02/28 05:02:43;;;;;;;17.08;8.18;;;;;;;-3.45;90.23;100758.22;5030017;28;20021;-53
2022/02/28 05:05:09;;;;;;;20.73;9.82;;;;;;;-2.78;92.92;100752.25;5030407;28;20064;-50
2022/02/28 05:07:34;;;;;;;24.35;8.80;;;;;;;-2.57;88.29;100756.78;5031876;28;20152;-51
2022/02/28 05:10:00;;;;;;;25.95;9.68;;;;;;;-2.78;85.75;100756.69;5033301;28;20139;-52
2022/02/28 05:12:25;;;;;;;24.23;11.27;;;;;;;-3.15;85.77;100754.25;5035738;28;20487;-50
2022/02/28 05:14:51;;;;;;;19.10;9.55;;;;;;;-3.48;85.00;100758.47;5029769;28;20044;-51
2022/02/28 05:17:16;;;;;;;23.70;9.70;;;;;;;-3.81;86.52;100754.78;5036387;28;20483;-51
2022/02/28 05:19:42;;;;;;;21.80;10.50;;;;;;;-3.92;87.49;100765.19;5036031;28;20075;-51
2022/02/28 05:22:07;;;;;;;23.38;9.82;;;;;;;-4.03;88.48;100768.59;5036517;28;20665;-53
2022/02/28 05:24:33;;;;;;;21.77;10.82;;;;;;;-4.13;89.22;100773.66;5036835;28;20044;-50
2022/02/28 05:26:59;;;;;;;27.42;11.20;;;;;;;-4.23;89.26;100767.41;5036185;28;20045;-50
2022/02/28 05:29:24;;;;;;;17.45;8.73;;;;;;;-3.99;93.09;100770.06;5031446;28;20041;-51
2022/02/28 05:31:50;;;;;;;26.48;9.80;;;;;;;-4.18;91.21;100767.91;5028237;28;20064;-51
2022/02/28 05:34:15;;;;;;;17.27;9.18;;;;;;;-4.30;91.73;100768.78;5029349;28;20041;-52
2022/02/28 05:36:41;;;;;;;23.25;10.75;;;;;;;-4.42;90.96;100772.25;5027165;28;20053;-51
2022/02/28 05:39:06;;;;;;;21.55;9.77;;;;;;;-4.42;91.40;100769.66;5030786;28;20037;-51
2022/02/28 05:41:31;;;;;;;24.05;10.90;;;;;;;-4.31;90.63;100766.28;5038225;28;20044;-52
2022/02/28 05:43:57;;;;;;;20.83;10.05;;;;;;;-4.26;89.79;100761.56;5029297;28;20099;-51
2022/02/28 05:46:22;;;;;;;21.52;8.32;;;;;;;-4.15;89.45;100762.44;5030298;28;20049;-52
2022/02/28 05:48:48;;;;;;;18.15;9.50;;;;;;;-4.14;90.14;100761.50;5035872;28;20034;-51
2022/02/28 05:51:13;;;;;;;19.33;9.32;;;;;;;-3.97;91.41;100762.06;5027415;28;20034;-53
2022/02/28 05:53:38;;;;;;;20.65;9.18;;;;;;;-3.70;94.45;100767.91;5034573;28;20038;-52
2022/02/28 05:56:05;;;;;;;21.67;10.65;;;;;;;-3.74;92.25;100774.34;5037123;28;20056;-54
2022/02/28 05:58:30;;;;;;;24.35;9.57;;;;;;;-3.92;90.24;100775.66;5035014;28;20029;-53
2022/02/28 06:00:55;;;;;;;22.33;10.43;;;;;;;-4.08;89.86;100782.97;5028766;28;20046;-50
2022/02/28 06:03:21;;;;;;;19.90;8.05;;;;;;;-4.35;91.32;100784.81;5035468;28;20522;-51
2022/02/28 06:05:46;;;;;;;24.48;9.60;;;;;;;-4.13;92.92;100788.53;5035400;28;20119;-53
2022/02/28 06:08:12;;;;;;;25.27;11.05;;;;;;;-3.80;92.83;100787.88;5035383;28;20024;-52
2022/02/28 06:10:37;;;;;;;20.38;10.18;;;;;;;-3.98;90.95;100789.22;5034953;28;20049;-53
2022/02/28 06:13:03;;;;;;;20.55;9.45;;;;;;;-4.05;89.78;100790.59;5029720;28;20025;-52
2022/02/28 06:15:28;;;;;;;17.42;9.18;;;;;;;-3.97;91.39;100793.50;5035074;28;20048;-51
2022/02/28 06:17:53;;;;;;;21.45;9.90;;;;;;;-3.97;90.75;100790.88;5032775;28;20012;-51
2022/02/28 06:20:19;;;;;;;23.90;10.25;;;;;;;-3.85;89.77;100791.78;5031240;28;20037;-51
2022/02/28 06:22:44;;;;;;;23.95;10.50;;;;;;;-3.84;89.52;100794.31;5024402;28;20793;-52
2022/02/28 06:25:10;;;;;;;20.38;11.32;;;;;;;-3.74;90.29;100792.69;5037211;28;20033;-51
2022/02/28 06:27:36;;;;;;;19.35;10.02;;;;;;;-3.73;89.43;100789.09;5032033;28;20017;-53
2022/02/28 06:30:02;;;;;;;21.65;9.95;;;;;;;-3.72;89.17;100790.78;5034905;28;20457;-50
2022/02/28 06:32:31;;;;;;;24.92;11.52;;;;;;;-3.77;89.52;100795.53;5036677;28;20102;-51
2022/02/28 06:34:56;;;;;;;25.83;11.15;;;;;;;-3.92;88.95;100801.84;5034234;28;20032;-53
2022/02/28 06:37:21;;;;;;;22.88;10.68;;;;;;;-4.00;88.58;100805.03;5033646;28;20033;-54
2022/02/28 06:39:47;;;;;;;18.92;11.00;;;;;;;-3.99;89.83;100805.91;5029808;28;20029;-55
2022/02/28 06:42:12;;;;;;;20.42;9.65;;;;;;;-4.28;89.64;100810.56;5038893;28;20418;-54
2022/02/28 06:44:38;;;;;;;23.55;11.00;;;;;;;-4.05;90.80;100811.56;5034898;28;20029;-54
2022/02/28 06:47:04;;;;;;;18.75;9.57;;;;;;;-3.79;91.08;100813.16;5041247;28;20048;-55
2022/02/28 06:49:29;;;;;;;24.65;10.63;;;;;;;-3.55;90.39;100812.28;5047331;28;20123;-52
2022/02/28 06:51:55;;;;;;;29.70;10.95;;;;;;;-3.28;90.87;100814.66;5035126;28;20046;-54
2022/02/28 06:54:20;;;;;;;18.80;10.80;;;;;;;-3.17;88.66;100808.59;5031246;28;20033;-54
2022/02/28 06:56:45;;;;;;;31.15;14.77;;;;;;;-1.29;86.27;100819.19;5040931;28;20044;-51
2022/02/28 06:59:11;;;;;;;42.03;22.63;;;;;;;1.31;73.71;100815.66;5041851;28;20029;-53
2022/02/28 07:01:36;;;;;;;26.70;13.45;;;;;;;2.16;65.40;100819.03;5042286;28;20049;-53
2022/02/28 07:04:03;;;;;;;19.17;11.00;;;;;;;3.42;61.03;100823.22;5034424;28;20025;-50
2022/02/28 07:06:28;;;;;;;25.52;11.90;;;;;;;4.35;56.09;100824.25;5030992;28;20968;-52
2022/02/28 07:08:54;;;;;;;25.50;12.75;;;;;;;4.06;54.57;100826.31;5028994;28;20065;-52
2022/02/28 07:11:19;;;;;;;22.75;12.32;;;;;;;3.13;59.38;100822.69;5038079;28;20410;-50
2022/02/28 07:13:45;;;;;;;18.98;9.15;;;;;;;3.17;65.70;100827.53;5037082;28;20380;-55
2022/02/28 07:16:11;;;;;;;20.95;10.95;;;;;;;2.70;68.25;100825.19;5028412;28;20095;-54
2022/02/28 07:18:36;;;;;;;24.45;12.48;;;;;;;3.05;58.22;100831.44;5051962;28;20493;-51
2022/02/28 07:21:01;;;;;;;29.42;12.60;;;;;;;2.70;60.14;100827.00;5038164;28;20048;-51
2022/02/28 07:23:27;;;;;;;24.40;12.25;;;;;;;2.84;59.69;100825.63;5030187;28;20018;-49
2022/02/28 07:25:52;;;;;;;23.77;13.70;;;;;;;3.08;59.56;100825.00;5036586;28;20034;-52
2022/02/28 07:28:20;;;;;;;29.15;12.95;;;;;;;3.36;66.23;100825.66;5038310;28;20018;-51
2022/02/28 07:30:46;;;;;;;25.27;12.68;;;;;;;4.09;58.51;100820.72;5036262;28;20498;-54
2022/02/28 07:33:11;;;;;;;22.98;12.02;;;;;;;3.90;57.80;100823.63;5032119;28;20018;-53
2022/02/28 07:35:37;;;;;;;26.20;13.75;;;;;;;4.28;55.38;100832.03;5037205;28;20060;-54
2022/02/28 07:38:02;;;;;;;36.15;17.45;;;;;;;4.50;54.75;100834.06;5031899;28;20025;-52
2022/02/28 07:40:27;;;;;;;36.22;19.45;;;;;;;4.43;53.76;100833.06;5034944;28;20091;-52
2022/02/28 07:42:53;;;;;;;41.83;19.92;;;;;;;3.86;55.88;100838.19;5033280;28;20402;-55
2022/02/28 07:45:21;;;;;;;40.38;18.52;;;;;;;3.50;57.89;100840.19;5037265;28;20053;-53
2022/02/28 07:47:46;;;;;;;37.65;19.25;;;;;;;3.22;58.86;100843.81;5031439;28;20033;-54
2022/02/28 07:50:12;;;;;;;41.33;21.60;;;;;;;3.43;57.83;100846.09;5029624;28;20048;-53
2022/02/28 07:52:37;;;;;;;44.90;21.52;;;;;;;3.26;58.92;100848.78;5033972;28;20383;-53
2022/02/28 07:55:04;;;;;;;38.00;19.55;;;;;;;3.89;57.10;100851.13;5029539;28;20017;-53
2022/02/28 07:57:29;;;;;;;48.95;20.83;;;;;;;3.28;57.39;100844.16;5032138;28;20494;-52
2022/02/28 07:59:56;;;;;;;47.45;21.92;;;;;;;3.43;58.42;100846.09;5033444;28;20032;-54
2022/02/28 08:02:22;;;;;;;49.03;21.13;;;;;;;4.36;55.49;100842.66;5038194;28;20037;-52
2022/02/28 08:04:47;;;;;;;43.33;18.92;;;;;;;4.52;55.30;100840.06;5039947;28;20033;-54
2022/02/28 08:07:13;;;;;;;43.05;19.17;;;;;;;4.76;54.30;100849.03;5035010;28;20067;-54
2022/02/28 08:09:38;;;;;;;36.67;17.95;;;;;;;4.95;53.81;100842.56;5035112;28;20037;-53
2022/02/28 08:12:04;;;;;;;35.80;15.65;;;;;;;5.58;51.61;100838.31;5011023;28;20052;-54
2022/02/28 08:14:29;;;;;;;33.50;14.52;;;;;;;4.61;54.37;100837.41;5040292;28;20025;-54
2022/02/28 08:16:55;;;;;;;33.72;14.43;;;;;;;5.27;53.04;100847.03;5033456;28;20053;-54
2022/02/28 08:19:20;;;;;;;30.90;14.82;;;;;;;5.26;53.62;100850.69;5040188;28;20044;-54
2022/02/28 08:21:46;;;;;;;35.70;15.50;;;;;;;5.18;53.83;100848.03;5042322;28;20037;-54
2022/02/28 08:24:11;;;;;;;52.40;16.40;;;;;;;4.72;54.54;100851.19;5039059;28;20048;-53
2022/02/28 08:26:37;;;;;;;41.63;16.13;;;;;;;5.07;54.09;100851.06;5032808;28;20052;-52
2022/02/28 08:29:02;;;;;;;41.13;16.05;;;;;;;4.69;55.15;100845.38;5031218;28;20141;-53
2022/02/28 08:31:27;;;;;;;35.25;16.48;;;;;;;5.13;55.10;100845.88;5032963;28;20052;-53
2022/02/28 08:33:53;;;;;;;36.05;15.77;;;;;;;5.61;53.89;100849.44;5035312;28;20037;-53
2022/02/28 08:36:18;;;;;;;46.45;16.42;;;;;;;6.70;50.76;100849.63;5035580;28;20045;-52
2022/02/28 08:38:44;;;;;;;49.22;16.10;;;;;;;6.44;51.01;100841.97;5038787;28;20111;-54
2022/02/28 08:41:09;;;;;;;36.35;16.05;;;;;;;6.04;51.92;100834.03;5036279;28;20065;-52
2022/02/28 08:43:35;;;;;;;34.13;14.05;;;;;;;6.21;52.29;100837.44;5034283;28;20029;-54
2022/02/28 08:46:01;;;;;;;32.90;13.73;;;;;;;6.29;51.73;100841.06;5028195;28;20054;-53
2022/02/28 08:48:27;;;;;;;36.00;12.55;;;;;;;6.85;51.31;100841.69;5035855;28;20021;-54
2022/02/28 08:50:52;;;;;;;35.38;13.15;;;;;;;7.35;50.06;100848.25;5035435;28;20510;-51
2022/02/28 08:53:18;;;;;;;24.90;12.27;;;;;;;7.11;50.01;100847.50;5036084;28;20025;-51
2022/02/28 08:55:43;;;;;;;25.77;12.70;;;;;;;5.88;53.07;100843.88;5039706;28;20069;-51
2022/02/28 08:58:08;;;;;;;24.52;12.63;;;;;;;6.64;52.05;100845.84;5034321;28;20026;-53
2022/02/28 09:00:34;;;;;;;36.42;13.45;;;;;;;6.64;51.36;100837.84;5041302;28;20097;-54
2022/02/28 09:02:59;;;;;;;35.78;14.73;;;;;;;6.44;52.10;100833.97;5029418;28;20022;-52
2022/02/28 09:05:25;;;;;;;28.33;12.50;;;;;;;6.81;50.99;100846.53;5028463;28;20052;-54
2022/02/28 09:07:50;;;;;;;29.83;12.73;;;;;;;6.95;51.06;100841.47;5033375;28;20037;-54
2022/02/28 09:10:18;;;;;;;29.77;12.90;;;;;;;6.81;51.62;100843.06;5031984;28;20103;-54
2022/02/28 09:12:44;;;;;;;31.63;13.40;;;;;;;7.10;51.17;100834.31;5035942;28;20155;-54
2022/02/28 09:15:10;;;;;;;36.45;15.18;;;;;;;7.75;49.30;100840.84;5034584;28;20026;-51
2022/02/28 09:17:38;;;;;;;29.08;12.93;;;;;;;7.70;50.33;100837.88;5029683;28;20025;-51
2022/02/28 09:20:04;;;;;;;31.63;12.93;;;;;;;7.31;51.47;100841.63;5038498;28;20406;-54
2022/02/28 09:22:29;;;;;;;26.13;13.35;;;;;;;8.11;51.05;100848.91;5038409;28;20021;-53
2022/02/28 09:24:55;;;;;;;30.95;13.48;;;;;;;7.63;51.57;100847.63;5037515;28;20036;-54
2022/02/28 09:27:20;;;;;;;23.92;12.38;;;;;;;7.80;51.34;100846.44;5033539;28;20049;-53
2022/02/28 09:29:46;;;;;;;30.20;12.63;;;;;;;7.90;50.92;100847.00;5028435;28;20037;-52
2022/02/28 09:32:11;;;;;;;29.50;12.70;;;;;;;8.06;48.80;100855.81;5026424;28;20064;-53
2022/02/28 09:34:37;;;;;;;50.10;16.63;;;;;;;8.77;48.88;100851.50;5036034;28;20033;-54
2022/02/28 09:37:03;;;;;;;23.77;13.50;;;;;;;7.33;46.58;100852.94;5026432;28;20037;-53
2022/02/28 09:39:28;;;;;;;29.42;13.43;;;;;;;7.33;45.17;100855.59;5030660;28;20115;-54
2022/02/28 09:41:56;;;;;;;37.72;14.95;;;;;;;6.83;51.34;100859.69;5027468;28;20375;-51
2022/02/28 09:44:22;;;;;;;45.00;14.77;;;;;;;7.50;47.64;100862.44;5035085;28;20029;-53
2022/02/28 09:46:47;;;;;;;26.40;12.90;;;;;;;6.00;46.88;100854.00;5025583;28;20060;-51
2022/02/28 09:49:13;;;;;;;22.15;10.68;;;;;;;4.92;49.18;100849.06;5027625;28;20026;-53
2022/02/28 09:51:38;;;;;;;26.75;12.40;;;;;;;6.09;48.80;100852.16;5024517;28;20148;-52
2022/02/28 09:54:04;;;;;;;25.10;13.25;;;;;;;6.57;46.10;100855.56;5029566;28;20036;-51
2022/02/28 09:56:30;;;;;;;24.83;12.15;;;;;;;5.92;47.30;100855.88;5031748;28;20479;-53
2022/02/28 09:58:56;;;;;;;28.60;14.10;;;;;;;6.19;46.90;100854.59;5037308;28;20060;-54
2022/02/28 10:01:21;;;;;;;25.50;13.20;;;;;;;5.74;48.30;100862.25;5026711;28;20446;-53
2022/02/28 10:03:47;;;;;;;25.05;12.38;;;;;;;6.00;47.75;100864.66;5036240;28;20048;-51
2022/02/28 10:06:14;;;;;;;30.83;13.88;;;;;;;6.59;46.39;100864.19;5035181;28;20041;-53
2022/02/28 10:08:53;;;;;;;23.60;11.48;;;;;;;6.67;47.30;100869.47;5036316;28;20059;-51
2022/02/28 10:11:27;;;;;;;29.33;13.88;;;;;;;7.48;44.42;100874.31;5029184;28;20049;-53
2022/02/28 10:13:55;;;;;;;27.55;13.25;;;;;;;6.67;46.19;100866.81;5034257;28;20495;-51
2022/02/28 10:16:30;;;;;;;27.05;12.65;;;;;;;7.60;44.75;100866.69;5027421;28;20056;-53
2022/02/28 10:18:55;;;;;;;26.23;12.98;;;;;;;6.24;47.36;100860.22;5042513;28;20026;-51
2022/02/28 10:21:50;;;;;;;25.60;11.07;;;;;;;6.08;48.36;100855.81;5031555;28;20503;-53
2022/02/28 10:24:25;;;;;;;26.90;12.98;;;;;;;7.08;45.01;100858.50;5035266;28;20029;-52
2022/02/28 10:26:57;;;;;;;41.42;17.33;;;;;;;7.61;43.51;100850.47;5011877;28;20119;-53
2022/02/28 10:29:23;;;;;;;31.63;15.07;;;;;;;7.43;44.35;100848.16;5028436;28;20035;-51
2022/02/28 10:31:48;;;;;;;33.45;16.45;;;;;;;7.16;44.82;100844.25;5034729;28;20049;-53
2022/02/28 10:34:24;;;;;;;29.45;13.75;;;;;;;7.62;45.09;100846.81;5039123;28;20056;-50
2022/02/28 10:37:09;;;;;;;23.85;12.55;;;;;;;6.74;45.09;100845.63;5053317;28;20048;-51
2022/02/28 10:39:39;;;;;;;22.42;11.63;;;;;;;6.98;44.58;100852.56;5039341;28;20037;-52
2022/02/28 10:42:10;;;;;;;28.75;13.13;;;;;;;6.79;45.30;100850.38;5034667;28;20147;-53
2022/02/28 10:44:35;;;;;;;;;;;;;;;7.61;44.30;100844.31;5038887;28;20626;-51
2022/02/28 10:47:03;;;;;;;28.10;12.93;;;;;;;7.68;42.83;100839.91;5031836;28;20454;-51
2022/02/28 10:49:30;;;;;;;26.10;11.35;;;;;;;8.81;42.29;100839.41;5039057;28;20064;-51
2022/02/28 10:51:59;;;;;;;33.03;14.98;;;;;;;8.59;40.51;100838.59;5038385;28;20045;-54
2022/02/28 10:54:26;;;;;;;30.65;14.57;;;;;;;8.19;42.78;100830.09;5040730;28;20064;-58
2022/02/28 10:56:56;;;;;;;26.60;12.95;;;;;;;8.55;41.05;100828.47;5033002;28;20041;-52
2022/02/28 10:59:24;;;;;;;27.58;12.40;;;;;;;7.87;42.30;100831.34;5033977;28;20718;-54
2022/02/28 11:01:50;;;;;;;25.42;13.88;;;;;;;8.04;42.69;100825.78;5027563;28;20037;-54
2022/02/28 11:04:15;;;;;;;23.50;11.50;;;;;;;8.25;41.13;100827.69;5034064;28;20075;-54
2022/02/28 11:06:42;;;;;;;24.80;14.35;;;;;;;7.57;41.74;100825.19;5030869;28;20466;-53
2022/02/28 11:09:07;;;;;;;17.15;9.18;;;;;;;7.03;43.32;100822.72;5034476;28;20029;-54
2022/02/28 11:11:33;;;;;;;22.38;12.98;;;;;;;7.72;43.11;100822.53;5029553;28;20087;-53